createdAt,value
2018-11-21T00:01:13.332Z,2.00
2018-11-21T00:03:40.399Z,2.00
2018-11-21T00:06:07.468Z,2.00
2018-11-21T00:08:34.600Z,2.00
2018-11-21T00:11:01.665Z,2.00
2018-11-21T00:13:28.713Z,2.00
2018-11-21T00:15:55.739Z,2.00
2018-11-21T00:18:22.789Z,2.00
2018-11-21T00:20:49.849Z,2.00
2018-11-21T00:23:16.881Z,2.00
2018-11-21T00:25:43.952Z,2.00
2018-11-21T00:28:11.037Z,2.00
2018-11-21T00:30:38.100Z,2.00
2018-11-21T00:33:05.172Z,2.00
2018-11-21T00:35:32.228Z,1.90
2018-11-21T00:37:59.438Z,1.90
2018-11-21T00:40:26.497Z,2.00
2018-11-21T00:42:53.590Z,1.90
2018-11-21T00:45:20.667Z,1.90
2018-11-21T00:47:47.764Z,2.00
2018-11-21T00:50:14.811Z,2.00
2018-11-21T00:52:41.937Z,2.00
2018-11-21T00:55:08.957Z,2.00
2018-11-21T00:57:36.076Z,2.00
2018-11-21T01:00:03.828Z,2.00
2018-11-21T01:02:30.905Z,1.90
2018-11-21T01:04:57.968Z,2.00
2018-11-21T01:07:25.121Z,1.90
2018-11-21T01:09:52.195Z,1.90
2018-11-21T01:12:19.283Z,1.90
2018-11-21T01:14:46.380Z,1.90
2018-11-21T01:17:13.533Z,2.00
2018-11-21T01:19:40.600Z,2.00
2018-11-21T01:22:07.641Z,2.00
2018-11-21T01:24:34.696Z,1.90
2018-11-21T01:27:01.747Z,1.90
2018-11-21T01:29:28.809Z,1.90
2018-11-21T01:31:55.861Z,1.90
2018-11-21T01:34:22.955Z,1.90
2018-11-21T01:36:50.021Z,1.90
2018-11-21T01:39:17.108Z,1.90
2018-11-21T01:41:44.152Z,1.90
2018-11-21T01:44:11.263Z,1.90
2018-11-21T01:46:38.342Z,1.90
2018-11-21T01:49:05.420Z,1.90
2018-11-21T01:51:32.775Z,1.90
2018-11-21T01:54:00.053Z,1.90
2018-11-21T01:56:27.211Z,1.90
2018-11-21T01:58:54.445Z,1.90
2018-11-21T02:01:21.525Z,1.90
2018-11-21T02:03:48.588Z,1.90
2018-11-21T02:06:15.645Z,1.90
2018-11-21T02:08:42.712Z,1.90
2018-11-21T02:11:09.786Z,1.90
2018-11-21T02:13:36.858Z,1.90
2018-11-21T02:16:04.639Z,1.90
2018-11-21T02:18:31.681Z,1.80
2018-11-21T02:20:58.743Z,1.80
2018-11-21T02:23:25.809Z,1.90
2018-11-21T02:25:52.912Z,1.80
2018-11-21T02:28:19.962Z,1.90
2018-11-21T02:30:48.437Z,1.90
2018-11-21T02:33:15.499Z,1.90
2018-11-21T02:35:42.574Z,1.90
2018-11-21T02:38:09.638Z,1.90
2018-11-21T02:40:36.707Z,1.90
2018-11-21T02:43:03.785Z,1.90
2018-11-21T02:45:30.893Z,1.80
2018-11-21T02:47:57.971Z,1.80
2018-11-21T02:50:25.026Z,1.70
2018-11-21T02:52:52.366Z,1.80
2018-11-21T02:55:19.444Z,1.80
2018-11-21T02:57:46.535Z,1.80
2018-11-21T03:00:16.066Z,1.80
2018-11-21T03:02:43.130Z,1.80
2018-11-21T03:05:10.205Z,1.90
2018-11-21T03:07:39.835Z,1.90
2018-11-21T03:10:06.891Z,1.90
2018-11-21T03:12:33.937Z,1.90
2018-11-21T03:15:01.032Z,1.90
2018-11-21T03:17:28.073Z,1.80
2018-11-21T03:19:55.121Z,1.80
2018-11-21T03:22:22.191Z,1.80
2018-11-21T03:24:49.284Z,1.80
2018-11-21T03:27:16.317Z,1.80
2018-11-21T03:29:43.370Z,1.90
2018-11-21T03:32:10.429Z,1.90
2018-11-21T03:34:37.509Z,1.90
2018-11-21T03:37:04.552Z,1.90
2018-11-21T03:39:31.604Z,1.90
2018-11-21T03:41:59.844Z,1.90
2018-11-21T03:44:26.895Z,1.90
2018-11-21T03:46:53.958Z,1.90
2018-11-21T03:49:21.026Z,1.90
2018-11-21T03:51:48.102Z,1.90
2018-11-21T03:54:15.156Z,1.80
2018-11-21T03:56:42.202Z,1.80
2018-11-21T03:59:09.736Z,1.90
2018-11-21T04:01:37.215Z,1.80
2018-11-21T04:04:05.029Z,1.80
2018-11-21T04:06:32.090Z,1.80
2018-11-21T04:08:59.185Z,1.80
2018-11-21T04:11:26.304Z,1.80
2018-11-21T04:13:53.414Z,1.70
2018-11-21T04:16:20.553Z,1.80
2018-11-21T04:18:51.877Z,1.80
2018-11-21T04:21:19.021Z,1.80
2018-11-21T04:23:46.116Z,1.80
2018-11-21T04:26:13.785Z,1.80
2018-11-21T04:28:40.871Z,1.80
2018-11-21T04:31:07.964Z,1.80
2018-11-21T04:33:35.044Z,1.90
2018-11-21T04:36:02.104Z,1.90
2018-11-21T04:38:29.142Z,1.90
2018-11-21T04:40:56.230Z,1.90
2018-11-21T04:43:23.302Z,1.90
2018-11-21T04:45:50.437Z,1.90
2018-11-21T04:48:17.513Z,1.90
2018-11-21T04:50:44.572Z,1.90
2018-11-21T04:53:11.629Z,1.90
2018-11-21T04:55:38.681Z,1.90
2018-11-21T04:58:05.766Z,2.00
2018-11-21T05:00:32.847Z,1.90
2018-11-21T05:03:01.120Z,1.90
2018-11-21T05:05:28.193Z,1.90
2018-11-21T05:07:55.247Z,1.90
2018-11-21T05:10:22.377Z,2.00
2018-11-21T05:12:49.435Z,2.00
2018-11-21T05:15:16.516Z,2.10
2018-11-21T05:17:43.592Z,2.10
2018-11-21T05:20:10.706Z,2.10
2018-11-21T05:22:38.153Z,2.10
2018-11-21T05:25:05.697Z,2.10
2018-11-21T05:27:32.773Z,2.10
2018-11-21T05:29:59.836Z,2.00
2018-11-21T05:32:26.885Z,2.10
2018-11-21T05:34:53.955Z,2.10
2018-11-21T05:37:21.052Z,2.10
2018-11-21T05:39:48.102Z,2.10
2018-11-21T05:42:15.248Z,2.20
2018-11-21T05:44:42.778Z,2.10
2018-11-21T05:47:09.834Z,2.10
2018-11-21T05:49:36.908Z,2.10
2018-11-21T05:52:04.398Z,2.10
2018-11-21T05:54:31.451Z,2.10
2018-11-21T05:56:58.514Z,2.10
2018-11-21T05:59:25.583Z,2.10
2018-11-21T06:01:52.651Z,2.10
2018-11-21T06:04:19.710Z,2.10
2018-11-21T06:06:46.773Z,2.20
2018-11-21T06:09:13.838Z,2.20
2018-11-21T06:11:41.765Z,2.20
2018-11-21T06:14:08.823Z,2.20
2018-11-21T06:16:36.159Z,2.20
2018-11-21T06:19:03.195Z,2.20
2018-11-21T06:21:30.371Z,2.20
2018-11-21T06:23:57.427Z,2.30
2018-11-21T06:26:24.528Z,2.20
2018-11-21T06:28:51.596Z,2.20
2018-11-21T06:31:18.647Z,2.30
2018-11-21T06:33:45.733Z,2.20
2018-11-21T06:36:12.792Z,2.20
2018-11-21T06:38:39.850Z,2.20
2018-11-21T06:41:06.908Z,2.30
2018-11-21T06:43:33.993Z,2.30
2018-11-21T06:46:01.047Z,2.30
2018-11-21T06:48:28.106Z,2.30
2018-11-21T06:50:55.152Z,2.40
2018-11-21T06:53:22.202Z,2.30
2018-11-21T06:55:49.299Z,2.30
2018-11-21T06:58:16.357Z,2.30
2018-11-21T07:00:43.421Z,2.30
2018-11-21T07:03:10.495Z,2.40
2018-11-21T07:05:37.576Z,2.40
2018-11-21T07:08:04.660Z,2.40
2018-11-21T07:10:31.732Z,2.30
2018-11-21T07:12:58.805Z,2.30
2018-11-21T07:15:25.871Z,2.30
2018-11-21T07:17:52.927Z,2.30
2018-11-21T07:20:19.955Z,2.40
2018-11-21T07:22:47.237Z,2.40
2018-11-21T07:25:19.290Z,2.40
2018-11-21T07:27:46.462Z,2.40
2018-11-21T07:30:14.587Z,2.50
2018-11-21T07:32:41.772Z,2.60
2018-11-21T07:35:09.129Z,2.60
2018-11-21T07:37:36.366Z,2.60
2018-11-21T07:40:05.526Z,2.70
2018-11-21T07:42:32.584Z,2.70
2018-11-21T07:44:59.673Z,2.80
2018-11-21T07:47:26.737Z,2.90
2018-11-21T07:49:53.771Z,2.90
2018-11-21T07:52:20.860Z,3.00
2018-11-21T07:54:49.201Z,3.10
2018-11-21T07:57:28.290Z,3.10
2018-11-21T08:01:02.424Z,3.20
2018-11-21T08:03:31.720Z,3.20
2018-11-21T08:06:04.517Z,3.30
2018-11-21T08:08:40.977Z,3.30
2018-11-21T08:11:26.531Z,3.30
2018-11-21T08:14:02.597Z,3.30
2018-11-21T08:16:48.096Z,3.40
2018-11-21T08:19:29.048Z,3.40
2018-11-21T08:22:14.435Z,3.40
2018-11-21T08:25:19.194Z,3.40
2018-11-21T08:28:08.772Z,3.50
2018-11-21T08:30:35.832Z,3.60
2018-11-21T08:33:02.956Z,3.50
2018-11-21T08:35:30.020Z,3.60
2018-11-21T08:37:57.109Z,3.60
2018-11-21T08:40:24.254Z,3.60
2018-11-21T08:42:51.313Z,3.50
2018-11-21T08:45:18.474Z,3.50
2018-11-21T08:47:45.547Z,3.60
2018-11-21T08:50:12.610Z,3.60
2018-11-21T08:52:39.657Z,3.60
2018-11-21T08:55:09.016Z,3.60
2018-11-21T08:57:34.477Z,3.60
2018-11-21T09:00:01.573Z,3.50
2018-11-21T09:02:28.660Z,3.50
2018-11-21T09:04:55.740Z,3.50
2018-11-21T09:07:22.835Z,3.50
2018-11-21T09:09:49.919Z,3.50
2018-11-21T09:12:16.997Z,3.50
2018-11-21T09:14:44.103Z,3.50
2018-11-21T09:17:11.260Z,3.50
2018-11-21T09:19:38.600Z,3.50
2018-11-21T09:22:09.109Z,3.60
2018-11-21T09:24:36.202Z,3.60
2018-11-21T09:27:03.697Z,3.60
2018-11-21T09:29:30.901Z,3.60
2018-11-21T09:31:58.088Z,3.60
2018-11-21T09:34:25.201Z,3.70
2018-11-21T09:36:52.880Z,3.70
2018-11-21T09:39:21.450Z,3.70
2018-11-21T09:41:48.989Z,3.70
2018-11-21T09:44:16.123Z,3.70
2018-11-21T09:46:46.190Z,3.70
2018-11-21T09:49:13.275Z,3.70
2018-11-21T09:51:40.437Z,3.80
2018-11-21T09:54:07.582Z,3.80
2018-11-21T09:56:34.893Z,3.90
2018-11-21T09:59:02.031Z,3.90
2018-11-21T10:02:06.181Z,3.90
2018-11-21T10:04:35.787Z,3.90
2018-11-21T10:07:02.895Z,3.90
2018-11-21T10:09:32.545Z,4.00
2018-11-21T10:11:59.610Z,4.00
2018-11-21T10:14:26.768Z,4.00
2018-11-21T10:16:53.885Z,4.10
2018-11-21T10:19:21.000Z,4.20
2018-11-21T10:21:48.085Z,4.20
2018-11-21T10:24:15.166Z,4.20
2018-11-21T10:26:42.781Z,4.20
2018-11-21T10:29:10.110Z,4.20
2018-11-21T10:31:38.822Z,4.10
2018-11-21T10:34:06.081Z,4.10
2018-11-21T10:36:33.381Z,4.00
2018-11-21T10:39:00.695Z,4.00
2018-11-21T10:41:28.362Z,3.90
2018-11-21T10:43:55.523Z,3.90
2018-11-21T10:46:22.803Z,3.90
2018-11-21T10:48:50.018Z,3.80
2018-11-21T10:51:17.152Z,3.80
2018-11-21T10:53:44.233Z,3.80
2018-11-21T10:56:11.350Z,3.80
2018-11-21T10:58:38.610Z,3.80
2018-11-21T11:01:43.498Z,3.80
2018-11-21T11:04:18.882Z,3.90
2018-11-21T11:07:08.348Z,3.90
2018-11-21T11:09:48.801Z,3.90
2018-11-21T11:12:35.484Z,3.90
2018-11-21T11:15:20.628Z,3.90
2018-11-21T11:18:09.976Z,3.80
2018-11-21T11:20:50.507Z,3.70
2018-11-21T11:23:52.254Z,3.60
2018-11-21T11:26:42.719Z,3.60
2018-11-21T11:29:28.080Z,3.60
2018-11-21T11:32:17.403Z,3.50
2018-11-21T11:35:04.055Z,3.50
2018-11-21T11:37:45.490Z,3.50
2018-11-21T11:40:50.189Z,3.50
2018-11-21T11:43:39.492Z,3.50
2018-11-21T11:46:25.152Z,3.50
2018-11-21T11:49:04.091Z,3.50
2018-11-21T11:51:49.854Z,3.50
2018-11-21T11:54:39.583Z,3.50
2018-11-21T11:57:26.214Z,3.50
2018-11-21T12:00:12.891Z,3.50
2018-11-21T12:02:58.396Z,3.50
